Aqua Ramon, Colorado
Current Conditions -  °F | °C
As of 3:50 AM on Friday 24 Oct 2014 (Local Time) from KRCV Reporting Station
Clear Clear  
Wind Chill: 35°   Ceiling: Unl
Heat Index: 41°   Visibility: 10mi
Dew Point: 31°   Wind: 12mph
Humidity: 67%   Direction: 280°W
Pressure: 30.4"   Gusts: NA
Location:  37.6359°N, 106.449°W
Report Text: KRCV 240950Z AUTO 28010KT 10SM CLR 05/00 A3040 RMK AO2 T00521005
Loading
Personal Weather Stations






























Interactive Weather Map New forecast layout! Learn more

10-Day Weather Forecast

Advertisements
Track Severe Weather on mobile